Time;durP1;ratioP1;P1;durP2;ratioP2;P2;SDS_P1;SDS_P2;PMS_P1;PMS_P2;Temp;Humidity;BMP_temperature;BMP_pressure;BME280_temperature;BME280_humidity;BME280_pressure;Samples;Min_cycle;Max_cycle;Signal;HPM_P1;HPM_P2
2021/03/19 00:00:43;;;;;;;11.03;6.53;;;;;;;8.79;60.45;101220.30;1737320;82;21141;-47
2021/03/19 00:03:11;;;;;;;8.43;6.22;;;;;;;8.79;60.55;101221.60;1744611;82;21145;-47
2021/03/19 00:05:40;;;;;;;7.28;6.12;;;;;;;8.81;60.60;101222.45;1734638;81;21117;-44
2021/03/19 00:08:08;;;;;;;8.95;6.47;;;;;;;8.78;60.53;101219.86;1739892;82;21287;-47
2021/03/19 00:10:36;;;;;;;8.30;6.60;;;;;;;8.76;60.29;101219.02;1739233;82;21636;-46
2021/03/19 00:13:11;;;;;;;7.55;6.72;;;;;;;8.75;60.32;101222.50;1744293;82;21120;-47
2021/03/19 00:15:40;;;;;;;10.15;6.90;;;;;;;8.73;60.26;101215.16;1744761;82;21589;-46
2021/03/19 00:18:08;;;;;;;8.85;6.85;;;;;;;8.71;60.76;101220.80;1732937;82;21290;-46
2021/03/19 00:20:41;;;;;;;11.95;7.78;;;;;;;8.67;60.93;101216.50;1747966;82;21172;-47
2021/03/19 00:23:10;;;;;;;7.30;6.42;;;;;;;8.66;61.01;101219.52;1677036;85;21195;-44
2021/03/19 00:25:39;;;;;;;9.28;7.05;;;;;;;8.64;61.03;101217.80;1672517;85;21189;-44
2021/03/19 00:28:07;;;;;;;7.10;6.37;;;;;;;8.64;61.08;101216.50;1676228;85;21302;-47
2021/03/19 00:30:35;;;;;;;7.75;6.78;;;;;;;8.65;60.97;101213.92;1670123;85;21160;-46
2021/03/19 00:33:04;;;;;;;7.47;6.55;;;;;;;8.66;61.08;101212.17;1681142;85;21175;-47
2021/03/19 00:35:33;;;;;;;7.30;6.53;;;;;;;8.64;61.11;101201.81;1601825;86;21183;-47
2021/03/19 00:38:01;;;;;;;8.15;6.65;;;;;;;8.63;61.04;101205.29;1677782;85;21338;-48
2021/03/19 00:40:30;;;;;;;9.98;7.33;;;;;;;8.62;60.96;101202.69;1671734;85;21644;-42
2021/03/19 00:42:58;;;;;;;8.38;7.17;;;;;;;8.57;61.07;101201.88;1677152;85;21235;-47
2021/03/19 00:45:28;;;;;;;7.95;7.15;;;;;;;8.54;61.24;101201.88;1668908;85;21175;-43
2021/03/19 00:47:57;;;;;;;8.13;7.22;;;;;;;8.52;61.36;101196.70;1673891;85;21228;-47
2021/03/19 00:50:38;;;;;;;8.93;8.10;;;;;;;8.51;61.45;101196.72;1672652;85;21254;-44
2021/03/19 00:53:05;;;;;;;9.40;8.40;;;;;;;8.51;61.47;101194.13;1682140;85;21215;-44
2021/03/19 00:55:35;;;;;;;8.88;7.65;;;;;;;8.51;61.49;101194.13;1674611;85;21750;-48
2021/03/19 00:58:04;;;;;;;8.73;7.55;;;;;;;8.51;61.47;101188.94;1675639;85;21175;-45
2021/03/19 01:00:35;;;;;;;8.80;8.00;;;;;;;8.54;61.43;101194.09;1676721;85;21144;-45
2021/03/19 01:03:10;;;;;;;8.98;8.10;;;;;;;8.61;61.19;101197.95;1771522;79;22971;-47
2021/03/19 01:05:43;;;;;;;9.15;8.25;;;;;;;8.57;61.03;101196.69;1734622;82;21195;-49
2021/03/19 01:08:12;;;;;;;9.45;7.95;;;;;;;8.56;60.96;101199.70;1740405;82;21722;-48
2021/03/19 01:10:44;;;;;;;11.90;9.30;;;;;;;8.53;60.88;101201.00;1738544;82;21156;-50
2021/03/19 01:13:14;;;;;;;10.03;9.05;;;;;;;8.48;60.96;101197.59;1697579;84;21635;-47
2021/03/19 01:15:43;;;;;;;;;;;;;;;8.49;61.01;101202.36;1648674;87;21628;-43
2021/03/19 01:18:16;;;;;;;10.28;9.28;;;;;;;8.50;61.12;101204.06;1671417;86;20169;-43
2021/03/19 01:20:45;;;;;;;10.78;9.10;;;;;;;8.49;61.20;101204.95;1626149;86;21252;-50
2021/03/19 01:23:14;;;;;;;10.38;9.38;;;;;;;8.50;61.24;101209.25;1691656;84;21188;-44
2021/03/19 01:25:43;;;;;;;10.30;9.30;;;;;;;8.45;61.26;101196.77;1689155;84;21176;-47
2021/03/19 01:28:14;;;;;;;9.73;8.65;;;;;;;8.41;61.40;101206.73;1695098;84;21361;-47
2021/03/19 01:30:41;;;;;;;13.25;9.48;;;;;;;8.39;61.54;101201.98;1694332;85;21216;-42
2021/03/19 01:33:09;;;;;;;11.00;9.90;;;;;;;8.41;61.59;101208.03;1695281;84;21322;-47
2021/03/19 01:35:40;;;;;;;11.55;10.32;;;;;;;8.41;61.67;101210.63;1682861;84;21176;-44
2021/03/19 01:38:09;;;;;;;12.23;10.20;;;;;;;8.40;61.68;101214.94;1695658;84;21228;-46
2021/03/19 01:40:41;;;;;;;10.68;9.60;;;;;;;8.40;61.71;101211.48;1695301;84;21199;-43
2021/03/19 01:43:24;;;;;;;10.13;9.13;;;;;;;8.41;61.76;101210.63;1689776;85;21605;-49
2021/03/19 01:46:43;;;;;;;11.18;9.83;;;;;;;8.44;61.71;101215.77;1695006;84;21625;-41
2021/03/19 01:50:08;;;;;;;11.78;10.55;;;;;;;8.45;61.57;101217.52;1691704;84;21590;-46
2021/03/19 01:53:32;;;;;;;10.72;9.73;;;;;;;8.46;61.40;101216.63;1694895;85;21216;-45
2021/03/19 01:56:56;;;;;;;12.05;9.38;;;;;;;8.44;61.50;101230.03;1643629;87;21219;-41
2021/03/19 02:00:21;;;;;;;10.98;9.90;;;;;;;8.47;61.62;101235.22;1688432;84;21396;-47
2021/03/19 02:03:45;;;;;;;11.70;10.50;;;;;;;8.48;61.30;101233.03;1673840;85;21638;-49
2021/03/19 02:07:09;;;;;;;15.68;11.40;;;;;;;8.44;61.26;101239.98;1656987;86;21196;-43
2021/03/19 02:10:34;;;;;;;12.03;10.78;;;;;;;8.42;61.42;101242.15;1692447;82;21204;-47
2021/03/19 02:13:58;;;;;;;11.53;10.28;;;;;;;8.43;61.56;101240.00;1738670;82;21149;-47
2021/03/19 02:17:21;;;;;;;11.30;10.30;;;;;;;8.42;61.43;101244.74;1730976;82;21168;-47
2021/03/19 02:20:46;;;;;;;12.10;10.90;;;;;;;8.41;61.28;101246.92;1747644;82;21570;-43
2021/03/19 02:24:10;;;;;;;14.43;11.18;;;;;;;8.40;61.33;101251.67;1732965;82;21168;-46
2021/03/19 02:27:36;;;;;;;11.65;10.48;;;;;;;8.37;61.25;101255.55;1733524;82;21125;-43
2021/03/19 02:30:59;;;;;;;12.23;10.93;;;;;;;8.35;61.38;101265.08;1733286;82;21615;-46
2021/03/19 02:33:27;;;;;;;13.72;11.65;;;;;;;8.31;61.30;101262.94;1731135;82;21161;-45
2021/03/19 02:35:59;;;;;;;12.90;11.60;;;;;;;8.26;61.13;101267.73;1714106;82;21153;-47
2021/03/19 02:38:27;;;;;;;11.18;10.00;;;;;;;8.21;61.29;101267.28;1728999;82;21175;-48
2021/03/19 02:40:54;;;;;;;11.57;10.48;;;;;;;8.21;61.45;101265.98;1730336;81;21322;-46
2021/03/19 02:43:23;;;;;;;13.50;10.85;;;;;;;8.21;61.70;101271.17;1738936;81;21173;-40
2021/03/19 02:45:51;;;;;;;11.22;10.20;;;;;;;8.28;61.72;101271.17;1727727;82;21920;-43
2021/03/19 02:48:20;;;;;;;12.00;10.20;;;;;;;8.34;61.35;101274.61;1731315;82;21144;-41
2021/03/19 02:50:49;;;;;;;13.70;10.68;;;;;;;8.35;60.92;101275.02;1732123;82;21153;-49
2021/03/19 02:53:23;;;;;;;10.55;9.45;;;;;;;8.37;60.97;101276.30;1732255;82;21191;-41
2021/03/19 02:55:51;;;;;;;12.05;10.65;;;;;;;8.41;60.72;101278.05;1740689;82;21152;-43
2021/03/19 02:58:18;;;;;;;10.58;9.58;;;;;;;8.40;60.41;101273.71;1733376;82;21148;-44
2021/03/19 03:00:47;;;;;;;12.20;10.78;;;;;;;8.32;60.56;101276.77;1731416;82;21360;-42
2021/03/19 03:03:15;;;;;;;14.07;10.55;;;;;;;8.29;60.53;101278.06;1743639;81;21187;-46
2021/03/19 03:05:43;;;;;;;11.57;10.48;;;;;;;8.27;60.65;101277.21;1733999;82;21577;-46
2021/03/19 03:08:14;;;;;;;10.80;9.50;;;;;;;8.21;60.72;101273.77;1740647;82;21738;-42
2021/03/19 03:10:43;;;;;;;10.58;9.58;;;;;;;8.23;61.03;101274.62;1738324;82;21136;-41
2021/03/19 03:13:11;;;;;;;10.05;9.10;;;;;;;8.28;60.97;101276.36;1745726;82;21286;-41
2021/03/19 03:15:40;;;;;;;10.85;9.78;;;;;;;8.30;60.96;101275.92;1744628;82;21601;-46
2021/03/19 03:18:09;;;;;;;11.65;9.70;;;;;;;8.31;60.87;101274.61;1734120;82;21290;-46
2021/03/19 03:20:42;;;;;;;10.25;9.00;;;;;;;8.32;60.86;101275.48;1746719;82;21128;-41
2021/03/19 03:23:10;;;;;;;12.33;9.58;;;;;;;8.34;60.96;101277.20;1738653;82;21169;-45
2021/03/19 03:25:39;;;;;;;9.13;8.20;;;;;;;8.35;60.87;101280.63;1737842;82;21153;-42
2021/03/19 03:28:07;;;;;;;12.45;8.68;;;;;;;8.35;60.82;101284.52;1736627;82;21255;-46
2021/03/19 03:30:48;;;;;;;10.35;9.35;;;;;;;8.36;60.74;101288.86;1736810;82;21168;-41
2021/03/19 03:33:22;;;;;;;10.35;9.10;;;;;;;8.39;60.70;101288.86;1801972;79;23130;-43
2021/03/19 03:35:51;;;;;;;9.43;8.53;;;;;;;8.35;60.58;101288.41;1780292;80;21125;-42
2021/03/19 03:38:23;;;;;;;9.28;8.38;;;;;;;8.36;60.59;101290.16;1781401;80;21298;-45
2021/03/19 03:40:56;;;;;;;9.05;8.25;;;;;;;8.34;60.82;101291.89;1775216;80;21132;-47
2021/03/19 03:43:30;;;;;;;9.20;8.30;;;;;;;8.37;60.69;101291.86;1813274;78;23334;-48
2021/03/19 03:45:58;;;;;;;8.78;7.97;;;;;;;8.30;60.76;101292.77;1825600;78;21187;-41
2021/03/19 03:48:29;;;;;;;10.13;8.50;;;;;;;8.30;60.74;101304.44;1813645;78;21580;-47
2021/03/19 03:50:58;;;;;;;8.45;7.62;;;;;;;8.27;60.78;101297.95;1815534;78;21710;-49
2021/03/19 03:53:26;;;;;;;9.35;8.35;;;;;;;8.28;60.88;101294.51;1760386;81;21145;-49
2021/03/19 03:55:56;;;;;;;8.93;8.08;;;;;;;8.29;61.03;101301.41;1768048;81;21156;-43
2021/03/19 03:58:24;;;;;;;9.43;7.80;;;;;;;8.30;61.02;101301.84;1770000;80;21144;-45
2021/03/19 04:00:52;;;;;;;8.85;7.95;;;;;;;8.29;60.88;101301.41;1755528;81;21148;-47
2021/03/19 04:03:20;;;;;;;8.95;8.05;;;;;;;8.31;60.95;101303.55;1756513;81;21584;-47
2021/03/19 04:05:49;;;;;;;9.93;8.38;;;;;;;8.29;60.90;101304.00;1776340;80;21330;-43
2021/03/19 04:08:21;;;;;;;10.23;8.78;;;;;;;8.31;60.96;101302.26;1763276;81;21163;-47
2021/03/19 04:10:49;;;;;;;9.55;8.23;;;;;;;8.31;61.20;101299.66;1776382;80;21290;-43
2021/03/19 04:13:18;;;;;;;9.03;8.13;;;;;;;8.39;61.24;101305.71;1747141;81;21196;-47
2021/03/19 04:15:48;;;;;;;11.95;9.13;;;;;;;8.42;61.09;101300.50;1756515;81;21590;-41
2021/03/19 04:18:17;;;;;;;11.22;9.13;;;;;;;8.46;60.97;101299.61;1775959;80;21172;-43
2021/03/19 04:20:47;;;;;;;9.50;8.58;;;;;;;8.48;60.91;101300.47;1745497;81;21317;-47
2021/03/19 04:23:17;;;;;;;9.88;8.55;;;;;;;8.52;60.73;101304.77;1762230;81;21156;-51
2021/03/19 04:25:45;;;;;;;19.73;10.98;;;;;;;8.52;60.77;101307.36;1770052;80;21207;-42
2021/03/19 04:28:15;;;;;;;9.88;8.55;;;;;;;8.49;60.72;101299.61;1756651;81;21176;-46
2021/03/19 04:30:43;;;;;;;8.60;7.47;;;;;;;8.47;60.68;101304.78;1756630;81;21152;-48
2021/03/19 04:33:22;;;;;;;9.60;8.60;;;;;;;8.45;60.59;101304.39;1755579;81;21513;-47
2021/03/19 04:36:02;;;;;;;11.85;9.65;;;;;;;8.43;60.56;101304.83;1688317;84;21186;-44
2021/03/19 04:38:30;;;;;;;10.58;9.50;;;;;;;8.38;60.49;101304.84;1688501;84;21196;-45
2021/03/19 04:40:58;;;;;;;9.60;8.50;;;;;;;8.31;60.65;101308.73;1688353;84;21337;-47
2021/03/19 04:43:33;;;;;;;12.05;9.35;;;;;;;8.31;60.94;101305.72;1810105;79;22122;-47
2021/03/19 04:46:01;;;;;;;12.00;9.18;;;;;;;8.25;61.09;101310.94;1770760;80;21144;-48
2021/03/19 04:48:30;;;;;;;10.80;9.38;;;;;;;8.24;61.17;101303.55;1781796;80;21116;-47
2021/03/19 04:50:58;;;;;;;9.45;8.05;;;;;;;8.27;61.15;101303.14;1772001;80;21179;-42
2021/03/19 04:53:28;;;;;;;11.45;8.60;;;;;;;8.30;61.06;101303.14;1774667;80;21647;-48
2021/03/19 04:55:56;;;;;;;10.00;9.00;;;;;;;8.32;60.86;101302.70;1777391;80;21576;-47
2021/03/19 04:58:24;;;;;;;10.08;8.08;;;;;;;8.34;60.98;101300.97;1777647;80;21743;-43
2021/03/19 05:00:52;;;;;;;9.35;7.75;;;;;;;8.37;60.64;101300.94;1777451;80;21144;-42
2021/03/19 05:03:20;;;;;;;12.15;9.43;;;;;;;8.35;60.44;101302.25;1775651;80;21302;-46
2021/03/19 05:05:48;;;;;;;9.50;8.58;;;;;;;8.33;60.60;101300.52;1783013;80;21604;-48
2021/03/19 05:08:18;;;;;;;10.15;8.88;;;;;;;8.37;60.38;101303.53;1776725;80;21148;-47
2021/03/19 05:10:46;;;;;;;13.00;9.03;;;;;;;8.38;60.32;101303.97;1776255;80;21175;-47
2021/03/19 05:13:14;;;;;;;10.28;8.58;;;;;;;8.43;60.49;101311.31;1785083;80;21282;-44
2021/03/19 05:15:45;;;;;;;11.93;8.88;;;;;;;8.47;60.55;101314.32;1784042;80;21168;-41
2021/03/19 05:18:13;;;;;;;13.20;8.30;;;;;;;8.59;60.53;101322.05;1771478;80;21178;-45
2021/03/19 05:20:43;;;;;;;8.93;8.13;;;;;;;8.68;60.22;101318.09;1786579;80;21203;-50
2021/03/19 05:23:29;;;;;;;11.95;8.63;;;;;;;8.71;59.95;101318.09;1777325;80;21334;-48
2021/03/19 05:25:58;;;;;;;16.45;7.87;;;;;;;8.72;59.66;101318.50;1784616;80;21156;-45
2021/03/19 05:28:26;;;;;;;8.43;7.25;;;;;;;8.67;59.60;101325.45;1776684;80;21207;-48
2021/03/19 05:30:54;;;;;;;8.25;7.45;;;;;;;8.66;59.75;101328.91;1778550;80;21144;-46
2021/03/19 05:33:24;;;;;;;8.23;7.42;;;;;;;8.68;59.84;101333.23;1779221;80;21144;-44
2021/03/19 05:35:53;;;;;;;10.95;8.23;;;;;;;8.72;59.86;101337.95;1780533;80;21144;-43
2021/03/19 05:38:22;;;;;;;8.58;7.25;;;;;;;8.72;59.66;101352.22;1780169;80;21162;-46
2021/03/19 05:40:52;;;;;;;8.55;7.50;;;;;;;8.72;59.38;101349.20;1779082;80;21290;-48
2021/03/19 05:43:27;;;;;;;8.60;7.22;;;;;;;8.71;59.58;101351.81;1766778;80;21177;-48
2021/03/19 05:46:11;;;;;;;11.05;8.03;;;;;;;8.72;59.67;101357.41;1757739;81;21605;-43
2021/03/19 05:49:05;;;;;;;10.53;8.40;;;;;;;8.73;59.55;101359.16;1766367;81;21167;-44
2021/03/19 05:51:40;;;;;;;9.28;8.35;;;;;;;8.71;59.41;101366.08;1766260;81;21178;-46
2021/03/19 05:54:29;;;;;;;8.73;7.83;;;;;;;8.75;59.31;101366.07;1763635;81;21180;-42
2021/03/19 05:57:09;;;;;;;9.33;8.28;;;;;;;8.79;59.11;101368.20;1762548;81;21584;-43
2021/03/19 05:59:43;;;;;;;9.10;7.85;;;;;;;8.80;59.11;101372.51;1734381;82;21167;-42
2021/03/19 06:02:33;;;;;;;11.78;8.10;;;;;;;8.83;59.09;101375.11;1702669;83;21177;-46
2021/03/19 06:05:24;;;;;;;9.00;8.08;;;;;;;8.83;59.18;101379.00;1700185;83;21165;-44
2021/03/19 06:08:05;;;;;;;11.55;10.32;;;;;;;8.93;59.28;101378.08;1756304;79;38703;-47
2021/03/19 06:10:37;;;;;;;10.00;8.78;;;;;;;8.99;59.27;101382.81;1739776;82;21140;-47
2021/03/19 06:13:28;;;;;;;10.08;8.88;;;;;;;9.11;58.86;101385.76;1743987;82;21112;-44
2021/03/19 06:16:32;;;;;;;10.10;7.78;;;;;;;9.15;58.87;101387.47;1732222;82;21573;-47
2021/03/19 06:19:24;;;;;;;10.55;8.88;;;;;;;9.22;58.64;101389.59;1657339;84;21199;-42
2021/03/19 06:22:23;;;;;;;9.93;8.30;;;;;;;9.20;58.51;101395.23;1660025;85;21348;-49
2021/03/19 06:25:01;;;;;;;10.55;8.85;;;;;;;9.20;58.41;101396.11;1770933;79;22656;-42
2021/03/19 06:27:37;;;;;;;9.98;8.98;;;;;;;9.14;58.46;101403.93;1740052;82;21588;-44
2021/03/19 06:30:13;;;;;;;12.00;10.23;;;;;;;9.13;58.48;101400.89;1669360;85;21679;-42
2021/03/19 06:32:43;;;;;;;9.05;8.13;;;;;;;9.10;58.42;101397.03;1643024;85;21176;-42
2021/03/19 06:35:20;;;;;;;8.60;7.80;;;;;;;9.09;58.57;101403.08;1675614;85;21276;-43
2021/03/19 06:37:52;;;;;;;9.53;8.53;;;;;;;9.10;58.58;101406.55;1640080;86;21192;-43
2021/03/19 06:40:28;;;;;;;10.13;8.95;;;;;;;9.08;58.67;101409.16;1672648;85;21168;-47
2021/03/19 06:43:27;;;;;;;10.35;9.35;;;;;;;9.11;58.69;101403.93;1791055;78;22952;-48
2021/03/19 06:46:14;;;;;;;12.07;8.85;;;;;;;9.06;58.47;101408.30;1759028;80;21285;-43
2021/03/19 06:48:50;;;;;;;10.75;7.92;;;;;;;9.04;58.56;101408.75;1691377;84;21220;-43
2021/03/19 06:51:31;;;;;;;9.38;8.25;;;;;;;9.07;58.62;101413.07;1687547;84;21661;-43
2021/03/19 06:54:14;;;;;;;11.05;9.03;;;;;;;9.08;58.37;101415.65;1669757;84;21640;-43
2021/03/19 06:57:05;;;;;;;10.05;8.95;;;;;;;9.06;58.45;101417.82;1681535;84;21342;-42
2021/03/19 06:59:56;;;;;;;9.15;8.30;;;;;;;9.12;58.62;101408.70;1771596;79;22966;-50
2021/03/19 07:03:00;;;;;;;9.90;8.78;;;;;;;9.14;58.71;101415.61;1826738;77;22932;-47
2021/03/19 07:06:09;;;;;;;9.95;9.03;;;;;;;9.16;59.03;101413.88;1723628;81;21345;-48
2021/03/19 07:09:14;;;;;;;9.85;8.13;;;;;;;9.31;58.79;101417.69;1771545;79;22942;-48
2021/03/19 07:12:03;;;;;;;9.78;8.30;;;;;;;9.29;58.49;101414.23;1741392;82;21160;-49
2021/03/19 07:14:47;;;;;;;9.05;8.15;;;;;;;9.30;58.67;101412.48;1727863;82;21141;-50
2021/03/19 07:17:39;;;;;;;8.83;7.92;;;;;;;9.33;58.53;101419.84;1734586;82;21545;-49
2021/03/19 07:20:44;;;;;;;10.38;8.30;;;;;;;9.31;58.07;101416.39;1741590;82;21339;-47
2021/03/19 07:23:23;;;;;;;8.53;7.70;;;;;;;9.24;58.36;101422.91;1746424;82;21211;-41
2021/03/19 07:26:18;;;;;;;10.48;8.75;;;;;;;9.19;58.76;101415.14;1664076;85;21628;-42
2021/03/19 07:29:10;;;;;;;9.78;7.92;;;;;;;9.28;58.96;101418.12;1803189;79;23107;-45
2021/03/19 07:31:47;;;;;;;9.33;8.43;;;;;;;9.28;58.97;101416.39;1711947;83;21267;-46
2021/03/19 07:34:58;;;;;;;10.23;8.95;;;;;;;9.34;58.65;101416.35;1773190;79;23101;-47
2021/03/19 07:37:57;;;;;;;9.35;7.92;;;;;;;9.30;58.48;101413.35;1684215;85;21278;-49
2021/03/19 07:41:04;;;;;;;8.50;7.70;;;;;;;9.32;58.63;101422.42;1694603;84;21623;-41
2021/03/19 07:43:49;;;;;;;9.58;8.55;;;;;;;9.34;58.66;101415.05;1702033;84;21611;-48
2021/03/19 07:47:09;;;;;;;9.50;8.40;;;;;;;9.52;58.67;101421.42;1810266;78;22960;-44
2021/03/19 07:50:17;;;;;;;9.60;8.60;;;;;;;9.59;58.39;101421.82;1672622;84;21462;-44
2021/03/19 07:53:24;;;;;;;9.43;8.40;;;;;;;9.68;57.76;101420.47;1641144;85;21210;-44
2021/03/19 07:56:37;;;;;;;9.65;8.65;;;;;;;9.69;57.54;101422.60;1643260;85;21254;-50
2021/03/19 07:59:55;;;;;;;9.65;8.65;;;;;;;9.68;57.32;101421.77;1645205;86;21328;-42
2021/03/19 08:03:01;;;;;;;10.45;8.83;;;;;;;9.68;57.37;101420.47;1627365;86;21348;-48
2021/03/19 08:05:51;;;;;;;10.23;8.63;;;;;;;9.70;57.61;101418.72;1625961;87;21211;-48
2021/03/19 08:09:05;;;;;;;10.08;9.18;;;;;;;9.72;57.16;101415.67;1646126;86;21210;-43
2021/03/19 08:11:55;;;;;;;12.65;10.00;;;;;;;9.71;57.27;101411.33;1800119;79;22932;-45
2021/03/19 08:14:44;;;;;;;9.65;8.65;;;;;;;9.70;57.62;101414.82;1768709;80;21148;-43
2021/03/19 08:17:46;;;;;;;10.13;8.75;;;;;;;9.76;57.33;101417.37;1715048;84;21168;-47
2021/03/19 08:20:39;;;;;;;8.70;7.78;;;;;;;9.77;57.01;101408.68;1704363;84;21653;-45
2021/03/19 08:23:52;;;;;;;9.43;8.53;;;;;;;9.80;57.49;101414.30;1710256;84;21252;-47
2021/03/19 08:27:02;;;;;;;10.63;9.63;;;;;;;9.93;57.26;101402.94;1810614;79;22880;-48
2021/03/19 08:30:02;;;;;;;10.72;9.43;;;;;;;10.03;57.12;101410.20;1726728;83;21120;-41
2021/03/19 08:32:59;;;;;;;11.30;9.28;;;;;;;10.19;56.97;101409.20;1694236;84;21818;-46
2021/03/19 08:36:08;;;;;;;13.10;9.35;;;;;;;10.34;56.58;101409.94;1702055;83;21613;-43
2021/03/19 08:38:49;;;;;;;10.10;9.10;;;;;;;10.45;56.14;101415.87;1801914;79;23083;-42
2021/03/19 08:41:31;;;;;;;10.50;9.13;;;;;;;10.47;56.06;101413.23;1734628;82;21203;-44
2021/03/19 08:44:01;;;;;;;11.12;9.98;;;;;;;10.54;55.99;101417.52;1713177;82;21176;-46
2021/03/19 08:46:49;;;;;;;16.12;10.38;;;;;;;10.58;55.36;101413.99;1730276;82;21156;-42
2021/03/19 08:49:38;;;;;;;9.00;8.10;;;;;;;10.62;55.39;101416.98;1736421;81;22795;-42
2021/03/19 08:52:35;;;;;;;9.25;8.30;;;;;;;10.67;55.16;101421.71;1737205;82;21128;-42
2021/03/19 08:55:22;;;;;;;10.78;7.85;;;;;;;10.68;55.00;101413.01;1771536;79;22925;-44
2021/03/19 08:57:58;;;;;;;9.80;8.80;;;;;;;10.67;54.93;101416.50;1744776;82;21160;-47
2021/03/19 09:00:32;;;;;;;9.15;8.23;;;;;;;10.69;55.43;101421.25;1708658;84;21218;-43
2021/03/19 09:03:05;;;;;;;9.60;8.53;;;;;;;10.68;54.87;101415.61;1708639;84;21202;-46
2021/03/19 09:05:36;;;;;;;10.88;8.60;;;;;;;10.66;54.91;101417.37;1708566;84;21226;-44
2021/03/19 09:08:29;;;;;;;9.48;8.58;;;;;;;10.62;54.84;101415.25;1708623;84;21190;-42
2021/03/19 09:11:05;;;;;;;11.35;8.63;;;;;;;10.63;54.85;101414.82;1771055;79;23358;-44
2021/03/19 09:13:33;;;;;;;10.08;8.15;;;;;;;10.58;55.11;101413.99;1727727;82;21298;-49
2021/03/19 09:16:36;;;;;;;13.45;9.88;;;;;;;10.59;55.01;101417.04;1733508;82;21608;-46
2021/03/19 09:19:31;;;;;;;21.87;14.60;;;;;;;10.64;55.15;101415.22;1740134;82;21113;-46
2021/03/19 09:22:25;;;;;;;12.05;10.05;;;;;;;10.67;54.75;101423.02;1673639;84;21177;-48
2021/03/19 09:25:16;;;;;;;10.08;9.08;;;;;;;10.65;55.28;101415.66;1668037;85;21648;-45
2021/03/19 09:28:06;;;;;;;14.18;10.93;;;;;;;10.67;55.29;101423.02;1670980;85;21313;-46
2021/03/19 09:30:41;;;;;;;13.22;10.93;;;;;;;10.65;55.17;101420.41;1675753;85;21223;-45
2021/03/19 09:33:32;;;;;;;12.60;9.58;;;;;;;10.58;55.20;101420.50;1670984;85;21168;-45
2021/03/19 09:36:01;;;;;;;9.90;8.90;;;;;;;10.52;55.71;101425.77;1674745;85;21184;-48
2021/03/19 09:38:34;;;;;;;11.00;9.93;;;;;;;10.48;55.71;101421.48;1648261;85;21323;-48
2021/03/19 09:41:04;;;;;;;25.05;16.87;;;;;;;10.47;55.95;101427.55;1671064;85;21327;-42
2021/03/19 09:43:46;;;;;;;32.28;20.52;;;;;;;10.48;55.78;101420.19;1671358;85;21260;-45
2021/03/19 09:46:27;;;;;;;20.55;14.98;;;;;;;10.50;55.58;101417.13;1666739;85;21181;-48
2021/03/19 09:49:00;;;;;;;12.70;10.90;;;;;;;10.52;55.69;101417.97;1673238;85;21216;-50
2021/03/19 09:51:45;;;;;;;14.20;10.95;;;;;;;10.52;55.52;101423.17;1658467;85;21260;-43
2021/03/19 09:54:33;;;;;;;10.45;8.53;;;;;;;10.58;55.63;101429.61;1771805;79;23428;-47
2021/03/19 09:57:28;;;;;;;10.65;8.63;;;;;;;10.59;55.53;101432.66;1744517;81;21148;-44
2021/03/19 10:00:07;;;;;;;12.33;9.58;;;;;;;10.58;55.25;101430.91;1738005;82;21157;-43
2021/03/19 10:02:40;;;;;;;13.13;9.15;;;;;;;10.58;55.20;101429.61;1746830;81;21288;-48
2021/03/19 10:05:23;;;;;;;10.53;9.38;;;;;;;10.59;55.15;101433.95;1752878;81;21164;-49
2021/03/19 10:07:57;;;;;;;15.03;10.90;;;;;;;10.58;55.24;101437.42;1752849;81;21156;-47
2021/03/19 10:10:40;;;;;;;12.05;9.43;;;;;;;10.59;55.02;101433.95;1752668;81;21779;-44
2021/03/19 10:13:23;;;;;;;11.55;9.93;;;;;;;10.60;54.73;101433.05;1819827;79;22835;-47
2021/03/19 10:15:53;;;;;;;16.45;10.53;;;;;;;10.51;54.75;101430.54;1773860;80;21129;-47
2021/03/19 10:18:33;;;;;;;11.88;9.75;;;;;;;10.44;55.00;101434.10;1777668;80;21140;-49
2021/03/19 10:21:13;;;;;;;13.60;9.08;;;;;;;10.44;55.39;101434.10;1768752;80;21180;-44
2021/03/19 10:23:47;;;;;;;10.40;9.30;;;;;;;10.47;55.85;101444.46;1775645;80;21290;-42
2021/03/19 10:26:34;;;;;;;10.55;9.20;;;;;;;10.51;56.26;101445.72;1657376;85;21154;-44
2021/03/19 10:29:25;;;;;;;12.68;9.83;;;;;;;10.56;56.50;101445.68;1638026;85;21236;-47
2021/03/19 10:31:59;;;;;;;11.30;10.00;;;;;;;10.59;56.25;101438.69;1660543;85;21186;-44
2021/03/19 10:35:00;;;;;;;11.93;9.30;;;;;;;10.61;56.16;101441.30;1674760;85;21631;-42
2021/03/19 10:37:38;;;;;;;12.30;10.08;;;;;;;10.61;56.01;101440.00;1671076;85;21197;-48
2021/03/19 10:40:17;;;;;;;11.55;9.45;;;;;;;10.62;56.15;101441.70;1671110;85;21246;-44
2021/03/19 10:43:10;;;;;;;10.10;9.00;;;;;;;10.69;56.25;101442.08;1771309;79;22925;-48
2021/03/19 10:45:52;;;;;;;11.93;9.70;;;;;;;10.69;56.02;101444.68;1726415;82;22713;-44
2021/03/19 10:48:29;;;;;;;11.38;9.83;;;;;;;10.73;55.95;101439.86;1737751;82;21164;-47
2021/03/19 10:51:14;;;;;;;11.68;10.45;;;;;;;10.77;56.08;101436.34;1683032;82;21256;-48
2021/03/19 10:53:49;;;;;;;11.63;9.68;;;;;;;10.82;56.50;101437.13;1674466;85;21185;-47
2021/03/19 10:56:26;;;;;;;11.22;10.05;;;;;;;10.92;56.49;101430.92;1771476;79;22957;-44
2021/03/19 10:59:10;;;;;;;13.63;9.63;;;;;;;10.91;56.29;101431.82;1740510;81;21592;-48
2021/03/19 11:01:48;;;;;;;10.78;9.60;;;;;;;10.97;56.15;101431.75;1742960;82;21212;-43
2021/03/19 11:04:39;;;;;;;10.15;9.10;;;;;;;11.03;56.00;101439.48;1738582;82;21159;-46
2021/03/19 11:07:19;;;;;;;13.53;10.15;;;;;;;11.06;55.96;101431.64;1709893;83;21190;-49
2021/03/19 11:10:13;;;;;;;12.88;10.28;;;;;;;11.08;55.63;101429.87;1709245;84;21374;-47
2021/03/19 11:13:11;;;;;;;11.40;9.85;;;;;;;11.09;55.50;101431.58;1819812;79;22927;-50
2021/03/19 11:15:43;;;;;;;10.18;9.15;;;;;;;11.02;55.42;101429.95;1765926;80;21164;-50
2021/03/19 11:18:25;;;;;;;11.00;8.95;;;;;;;10.98;55.60;101433.48;1773802;80;21191;-47
2021/03/19 11:21:09;;;;;;;11.25;10.03;;;;;;;10.95;55.57;101430.91;1784327;80;21167;-44
2021/03/19 11:23:45;;;;;;;10.58;9.58;;;;;;;10.95;55.56;101428.30;1758698;80;21641;-49
2021/03/19 11:26:28;;;;;;;10.90;9.80;;;;;;;10.94;55.57;101424.42;1769843;80;21298;-45
2021/03/19 11:29:17;;;;;;;10.32;9.28;;;;;;;10.90;55.42;101427.48;1756536;80;21183;-47
2021/03/19 11:32:08;;;;;;;11.97;9.60;;;;;;;10.82;55.48;101424.58;1777902;80;21168;-47
2021/03/19 11:34:50;;;;;;;10.40;8.90;;;;;;;10.75;55.69;101421.61;1770872;80;21140;-44
2021/03/19 11:37:29;;;;;;;10.25;9.25;;;;;;;10.72;55.92;101414.69;1786929;79;28123;-46
2021/03/19 11:40:14;;;;;;;10.82;9.73;;;;;;;10.68;55.96;101416.91;1778254;80;21152;-50
2021/03/19 11:42:59;;;;;;;10.48;9.38;;;;;;;10.67;55.89;101413.91;1792753;80;21142;-47
2021/03/19 11:45:29;;;;;;;9.28;8.38;;;;;;;10.62;56.03;101414.38;1647223;86;21428;-47
2021/03/19 11:48:04;;;;;;;12.00;9.63;;;;;;;10.57;56.23;101412.29;1648280;86;21614;-46
2021/03/19 11:50:39;;;;;;;9.83;8.83;;;;;;;10.52;56.16;101416.67;1601187;89;21681;-44
2021/03/19 11:53:11;;;;;;;10.60;8.35;;;;;;;10.47;56.40;101415.84;1617552;88;21235;-47
2021/03/19 11:55:42;;;;;;;10.82;8.53;;;;;;;10.44;56.60;101413.29;1611818;88;21219;-49
2021/03/19 11:58:11;;;;;;;10.53;9.43;;;;;;;10.42;56.80;101415.05;1611015;88;21191;-46
2021/03/19 12:00:40;;;;;;;9.55;8.50;;;;;;;10.41;56.89;101411.58;1613311;88;21663;-47
2021/03/19 12:03:22;;;;;;;13.45;9.65;;;;;;;10.40;57.10;101411.59;1610674;88;21234;-47
2021/03/19 12:05:50;;;;;;;13.20;9.18;;;;;;;10.39;57.23;101412.46;1609127;88;21247;-44
2021/03/19 12:08:18;;;;;;;13.98;9.28;;;;;;;10.35;57.56;101411.64;1611283;88;21647;-42
2021/03/19 12:10:47;;;;;;;9.63;8.43;;;;;;;10.36;57.51;101416.41;1611683;87;21215;-50
2021/03/19 12:13:17;;;;;;;12.35;8.25;;;;;;;10.36;57.75;101412.52;1605738;88;21299;-48
2021/03/19 12:15:45;;;;;;;10.00;9.00;;;;;;;10.38;58.03;101414.66;1612494;88;21221;-48
2021/03/19 12:18:16;;;;;;;11.95;8.88;;;;;;;10.41;57.70;101409.41;1611727;88;21361;-43
2021/03/19 12:20:45;;;;;;;9.75;8.78;;;;;;;10.46;57.72;101419.34;1605273;88;21204;-45
2021/03/19 12:23:13;;;;;;;11.05;9.20;;;;;;;10.48;57.59;101417.58;1613348;88;21377;-47
2021/03/19 12:25:42;;;;;;;11.83;8.63;;;;;;;10.47;57.42;101415.84;1611712;88;21211;-45